sensor_id;sensor_type;location;lat;lon;timestamp;temperature;humidity
15003;DHT22;7597;53.590;10.020;2022-11-27T00:01:43;7.10;99.90
15003;DHT22;7597;53.590;10.020;2022-11-27T00:04:10;6.50;99.90
15003;DHT22;7597;53.590;10.020;2022-11-27T00:06:41;6.40;99.90
15003;DHT22;7597;53.590;10.020;2022-11-27T00:09:05;6.40;99.90
15003;DHT22;7597;53.590;10.020;2022-11-27T00:11:33;6.40;99.90
15003;DHT22;7597;53.590;10.020;2022-11-27T00:13:59;6.30;99.90
15003;DHT22;7597;53.590;10.020;2022-11-27T00:16:27;6.30;99.90
15003;DHT22;7597;53.590;10.020;2022-11-27T00:18:54;6.40;99.90
15003;DHT22;7597;53.590;10.020;2022-11-27T00:21:23;6.30;99.90
15003;DHT22;7597;53.590;10.020;2022-11-27T00:23:49;6.20;99.90
15003;DHT22;7597;53.590;10.020;2022-11-27T00:26:15;6.30;99.90
15003;DHT22;7597;53.590;10.020;2022-11-27T00:28:43;6.20;99.90
15003;DHT22;7597;53.590;10.020;2022-11-27T00:31:13;6.20;99.90
15003;DHT22;7597;53.590;10.020;2022-11-27T00:33:38;6.20;99.90
15003;DHT22;7597;53.590;10.020;2022-11-27T00:36:06;6.10;99.90
15003;DHT22;7597;53.590;10.020;2022-11-27T00:38:33;6.10;99.90
15003;DHT22;7597;53.590;10.020;2022-11-27T00:41:07;6.00;99.90
15003;DHT22;7597;53.590;10.020;2022-11-27T00:43:35;6.00;99.90
15003;DHT22;7597;53.590;10.020;2022-11-27T00:46:02;6.00;99.90
15003;DHT22;7597;53.590;10.020;2022-11-27T00:48:29;6.00;99.90
15003;DHT22;7597;53.590;10.020;2022-11-27T00:50:59;5.90;99.90
15003;DHT22;7597;53.590;10.020;2022-11-27T00:53:26;5.90;99.90
15003;DHT22;7597;53.590;10.020;2022-11-27T00:55:53;5.90;99.90
15003;DHT22;7597;53.590;10.020;2022-11-27T00:58:20;5.90;99.90
15003;DHT22;7597;53.590;10.020;2022-11-27T01:00:53;5.90;99.90
15003;DHT22;7597;53.590;10.020;2022-11-27T01:03:13;5.90;99.90
15003;DHT22;7597;53.590;10.020;2022-11-27T01:05:40;5.90;99.90
15003;DHT22;7597;53.590;10.020;2022-11-27T01:08:06;5.90;99.90
15003;DHT22;7597;53.590;10.020;2022-11-27T01:10:33;5.90;99.90
15003;DHT22;7597;53.590;10.020;2022-11-27T01:13:00;5.90;99.90
15003;DHT22;7597;53.590;10.020;2022-11-27T01:15:26;5.90;99.90
15003;DHT22;7597;53.590;10.020;2022-11-27T01:17:54;5.90;99.90
15003;DHT22;7597;53.590;10.020;2022-11-27T01:20:21;5.90;99.90
15003;DHT22;7597;53.590;10.020;2022-11-27T01:22:48;5.80;99.90
15003;DHT22;7597;53.590;10.020;2022-11-27T01:25:15;6.20;99.90
15003;DHT22;7597;53.590;10.020;2022-11-27T01:27:41;6.10;99.90
15003;DHT22;7597;53.590;10.020;2022-11-27T01:30:09;5.70;99.90
15003;DHT22;7597;53.590;10.020;2022-11-27T01:32:36;5.70;99.90
15003;DHT22;7597;53.590;10.020;2022-11-27T01:35:04;5.70;99.90
15003;DHT22;7597;53.590;10.020;2022-11-27T01:37:30;5.60;99.90
15003;DHT22;7597;53.590;10.020;2022-11-27T01:39:57;5.60;99.90
15003;DHT22;7597;53.590;10.020;2022-11-27T01:42:24;5.60;99.90
15003;DHT22;7597;53.590;10.020;2022-11-27T01:44:51;5.50;99.90
15003;DHT22;7597;53.590;10.020;2022-11-27T01:47:26;5.40;99.90
15003;DHT22;7597;53.590;10.020;2022-11-27T01:49:49;5.50;99.90
15003;DHT22;7597;53.590;10.020;2022-11-27T01:52:27;5.90;99.90
15003;DHT22;7597;53.590;10.020;2022-11-27T01:55:00;5.50;99.90
15003;DHT22;7597;53.590;10.020;2022-11-27T01:57:28;5.60;99.90
15003;DHT22;7597;53.590;10.020;2022-11-27T01:59:54;5.50;99.90
15003;DHT22;7597;53.590;10.020;2022-11-27T02:02:20;5.50;99.90
15003;DHT22;7597;53.590;10.020;2022-11-27T02:04:47;5.80;99.90
15003;DHT22;7597;53.590;10.020;2022-11-27T02:07:15;5.50;99.90
15003;DHT22;7597;53.590;10.020;2022-11-27T02:09:42;5.40;99.90
15003;DHT22;7597;53.590;10.020;2022-11-27T02:12:25;5.50;99.90
15003;DHT22;7597;53.590;10.020;2022-11-27T02:15:00;5.50;99.90
15003;DHT22;7597;53.590;10.020;2022-11-27T02:17:35;5.40;99.90
15003;DHT22;7597;53.590;10.020;2022-11-27T02:20:33;5.40;99.90
15003;DHT22;7597;53.590;10.020;2022-11-27T02:23:05;5.70;99.90
15003;DHT22;7597;53.590;10.020;2022-11-27T02:26:10;5.30;99.90
15003;DHT22;7597;53.590;10.020;2022-11-27T02:31:08;5.10;99.90
15003;DHT22;7597;53.590;10.020;2022-11-27T02:33:31;5.10;99.90
15003;DHT22;7597;53.590;10.020;2022-11-27T02:36:00;5.10;99.90
15003;DHT22;7597;53.590;10.020;2022-11-27T02:38:29;5.10;99.90
15003;DHT22;7597;53.590;10.020;2022-11-27T02:40:56;5.00;99.90
15003;DHT22;7597;53.590;10.020;2022-11-27T02:43:38;4.90;99.90
15003;DHT22;7597;53.590;10.020;2022-11-27T02:46:04;5.00;99.90
15003;DHT22;7597;53.590;10.020;2022-11-27T02:48:32;5.00;99.90
15003;DHT22;7597;53.590;10.020;2022-11-27T02:50:56;5.00;99.90
15003;DHT22;7597;53.590;10.020;2022-11-27T02:53:27;5.10;99.90
15003;DHT22;7597;53.590;10.020;2022-11-27T02:55:51;5.10;99.90
15003;DHT22;7597;53.590;10.020;2022-11-27T02:58:20;4.90;99.90
15003;DHT22;7597;53.590;10.020;2022-11-27T03:00:46;4.90;99.90
15003;DHT22;7597;53.590;10.020;2022-11-27T03:03:13;4.90;99.90
15003;DHT22;7597;53.590;10.020;2022-11-27T03:05:40;5.00;99.90
15003;DHT22;7597;53.590;10.020;2022-11-27T03:08:09;5.20;99.90
15003;DHT22;7597;53.590;10.020;2022-11-27T03:10:52;4.90;99.90
15003;DHT22;7597;53.590;10.020;2022-11-27T03:13:17;4.80;99.90
15003;DHT22;7597;53.590;10.020;2022-11-27T03:15:47;4.80;99.90
15003;DHT22;7597;53.590;10.020;2022-11-27T03:18:12;4.80;99.90
15003;DHT22;7597;53.590;10.020;2022-11-27T03:20:38;4.80;99.90
15003;DHT22;7597;53.590;10.020;2022-11-27T03:23:04;4.80;99.90
15003;DHT22;7597;53.590;10.020;2022-11-27T03:25:30;4.70;99.90
15003;DHT22;7597;53.590;10.020;2022-11-27T03:27:59;4.70;99.90
15003;DHT22;7597;53.590;10.020;2022-11-27T03:30:24;4.70;99.90
15003;DHT22;7597;53.590;10.020;2022-11-27T03:32:51;4.80;99.90
15003;DHT22;7597;53.590;10.020;2022-11-27T03:35:20;4.60;99.90
15003;DHT22;7597;53.590;10.020;2022-11-27T03:37:45;4.60;99.90
15003;DHT22;7597;53.590;10.020;2022-11-27T03:40:12;4.50;99.90
15003;DHT22;7597;53.590;10.020;2022-11-27T03:42:46;4.50;99.90
15003;DHT22;7597;53.590;10.020;2022-11-27T03:45:16;4.50;99.90
15003;DHT22;7597;53.590;10.020;2022-11-27T03:48:05;4.50;99.90
15003;DHT22;7597;53.590;10.020;2022-11-27T03:53:47;4.50;99.90
15003;DHT22;7597;53.590;10.020;2022-11-27T03:56:14;4.50;99.90
15003;DHT22;7597;53.590;10.020;2022-11-27T03:58:45;4.50;99.90
15003;DHT22;7597;53.590;10.020;2022-11-27T04:01:10;4.50;99.90
15003;DHT22;7597;53.590;10.020;2022-11-27T04:03:36;4.40;99.90
15003;DHT22;7597;53.590;10.020;2022-11-27T04:06:03;4.30;99.90
15003;DHT22;7597;53.590;10.020;2022-11-27T04:08:30;4.30;99.90
15003;DHT22;7597;53.590;10.020;2022-11-27T04:10:56;4.30;99.90
15003;DHT22;7597;53.590;10.020;2022-11-27T04:13:23;4.30;99.90
15003;DHT22;7597;53.590;10.020;2022-11-27T04:15:51;4.30;99.90
15003;DHT22;7597;53.590;10.020;2022-11-27T04:18:18;4.30;99.90
15003;DHT22;7597;53.590;10.020;2022-11-27T04:20:44;4.20;99.90
15003;DHT22;7597;53.590;10.020;2022-11-27T04:23:11;4.20;99.90
15003;DHT22;7597;53.590;10.020;2022-11-27T04:25:37;4.20;99.90
15003;DHT22;7597;53.590;10.020;2022-11-27T04:28:04;4.20;99.90
15003;DHT22;7597;53.590;10.020;2022-11-27T04:30:31;4.10;99.90
15003;DHT22;7597;53.590;10.020;2022-11-27T04:32:58;4.20;99.90
15003;DHT22;7597;53.590;10.020;2022-11-27T04:35:24;4.20;99.90
15003;DHT22;7597;53.590;10.020;2022-11-27T04:37:51;4.20;99.90
15003;DHT22;7597;53.590;10.020;2022-11-27T04:40:18;4.10;99.90
15003;DHT22;7597;53.590;10.020;2022-11-27T04:42:45;4.10;99.90
15003;DHT22;7597;53.590;10.020;2022-11-27T04:45:11;4.10;99.90
15003;DHT22;7597;53.590;10.020;2022-11-27T04:47:38;4.10;99.90
15003;DHT22;7597;53.590;10.020;2022-11-27T04:50:05;4.10;99.90
15003;DHT22;7597;53.590;10.020;2022-11-27T04:52:32;4.10;99.90
15003;DHT22;7597;53.590;10.020;2022-11-27T04:54:59;4.10;99.90
15003;DHT22;7597;53.590;10.020;2022-11-27T04:57:26;4.00;99.90
15003;DHT22;7597;53.590;10.020;2022-11-27T04:59:54;4.00;99.90
15003;DHT22;7597;53.590;10.020;2022-11-27T05:02:21;4.00;99.90
15003;DHT22;7597;53.590;10.020;2022-11-27T05:04:49;3.90;99.90
15003;DHT22;7597;53.590;10.020;2022-11-27T05:07:15;3.90;99.90
15003;DHT22;7597;53.590;10.020;2022-11-27T05:09:42;3.90;99.90
15003;DHT22;7597;53.590;10.020;2022-11-27T05:12:09;3.90;99.90
15003;DHT22;7597;53.590;10.020;2022-11-27T05:14:35;3.90;99.90
15003;DHT22;7597;53.590;10.020;2022-11-27T05:17:02;3.90;99.90
15003;DHT22;7597;53.590;10.020;2022-11-27T05:19:29;3.80;99.90
15003;DHT22;7597;53.590;10.020;2022-11-27T05:21:56;3.80;99.90
15003;DHT22;7597;53.590;10.020;2022-11-27T05:24:23;3.80;99.90
15003;DHT22;7597;53.590;10.020;2022-11-27T05:26:49;3.80;99.90
15003;DHT22;7597;53.590;10.020;2022-11-27T05:29:15;3.80;99.90
15003;DHT22;7597;53.590;10.020;2022-11-27T05:31:42;3.80;98.90
15003;DHT22;7597;53.590;10.020;2022-11-27T05:34:11;3.70;93.90
15003;DHT22;7597;53.590;10.020;2022-11-27T05:36:36;3.80;92.00
15003;DHT22;7597;53.590;10.020;2022-11-27T05:39:04;3.70;75.80
15003;DHT22;7597;53.590;10.020;2022-11-27T05:41:30;3.70;56.50
15003;DHT22;7597;53.590;10.020;2022-11-27T05:43:57;3.70;54.00
15003;DHT22;7597;53.590;10.020;2022-11-27T05:46:24;3.80;54.70
15003;DHT22;7597;53.590;10.020;2022-11-27T05:48:51;3.60;60.90
15003;DHT22;7597;53.590;10.020;2022-11-27T05:51:17;3.70;60.30
15003;DHT22;7597;53.590;10.020;2022-11-27T05:53:44;3.70;55.80
15003;DHT22;7597;53.590;10.020;2022-11-27T05:56:13;3.70;56.60
15003;DHT22;7597;53.590;10.020;2022-11-27T05:58:38;3.60;39.80
15003;DHT22;7597;53.590;10.020;2022-11-27T06:01:04;3.60;31.00
15003;DHT22;7597;53.590;10.020;2022-11-27T06:03:31;3.60;26.20
15003;DHT22;7597;53.590;10.020;2022-11-27T06:05:57;3.60;25.90
15003;DHT22;7597;53.590;10.020;2022-11-27T06:08:24;3.50;27.90
15003;DHT22;7597;53.590;10.020;2022-11-27T06:10:51;3.50;26.80
15003;DHT22;7597;53.590;10.020;2022-11-27T06:13:18;3.50;31.90
15003;DHT22;7597;53.590;10.020;2022-11-27T06:15:44;3.40;39.30
15003;DHT22;7597;53.590;10.020;2022-11-27T06:18:11;3.40;34.50
15003;DHT22;7597;53.590;10.020;2022-11-27T06:20:38;3.40;27.80
15003;DHT22;7597;53.590;10.020;2022-11-27T06:23:05;3.80;22.50
15003;DHT22;7597;53.590;10.020;2022-11-27T06:25:32;3.30;15.70
15003;DHT22;7597;53.590;10.020;2022-11-27T06:27:58;3.20;28.40
15003;DHT22;7597;53.590;10.020;2022-11-27T06:30:25;3.20;17.00
15003;DHT22;7597;53.590;10.020;2022-11-27T06:32:59;3.10;23.00
15003;DHT22;7597;53.590;10.020;2022-11-27T06:35:26;3.10;23.90
15003;DHT22;7597;53.590;10.020;2022-11-27T06:37:53;3.10;27.10
15003;DHT22;7597;53.590;10.020;2022-11-27T06:40:20;3.20;15.40
15003;DHT22;7597;53.590;10.020;2022-11-27T06:42:48;3.10;18.40
15003;DHT22;7597;53.590;10.020;2022-11-27T06:45:14;3.10;17.20
15003;DHT22;7597;53.590;10.020;2022-11-27T06:47:42;3.10;20.40
15003;DHT22;7597;53.590;10.020;2022-11-27T06:50:09;3.10;23.70
15003;DHT22;7597;53.590;10.020;2022-11-27T06:52:36;3.00;9.80
15003;DHT22;7597;53.590;10.020;2022-11-27T06:55:03;3.00;1.00
15003;DHT22;7597;53.590;10.020;2022-11-27T06:57:30;3.00;1.00
15003;DHT22;7597;53.590;10.020;2022-11-27T06:59:57;3.00;1.00
15003;DHT22;7597;53.590;10.020;2022-11-27T07:02:24;3.00;4.60
15003;DHT22;7597;53.590;10.020;2022-11-27T07:04:50;3.00;1.00
15003;DHT22;7597;53.590;10.020;2022-11-27T07:07:17;2.90;1.00
15003;DHT22;7597;53.590;10.020;2022-11-27T07:09:44;3.00;1.00
15003;DHT22;7597;53.590;10.020;2022-11-27T07:12:10;3.30;1.00
15003;DHT22;7597;53.590;10.020;2022-11-27T07:14:37;2.90;1.00
15003;DHT22;7597;53.590;10.020;2022-11-27T07:17:04;2.90;1.00
15003;DHT22;7597;53.590;10.020;2022-11-27T07:19:30;2.90;1.00
15003;DHT22;7597;53.590;10.020;2022-11-27T07:21:57;2.90;1.00
15003;DHT22;7597;53.590;10.020;2022-11-27T07:24:24;2.90;1.00
15003;DHT22;7597;53.590;10.020;2022-11-27T07:26:50;2.90;1.00
15003;DHT22;7597;53.590;10.020;2022-11-27T07:29:17;3.40;1.00
15003;DHT22;7597;53.590;10.020;2022-11-27T07:31:44;3.00;1.00
15003;DHT22;7597;53.590;10.020;2022-11-27T07:34:10;3.00;1.00
15003;DHT22;7597;53.590;10.020;2022-11-27T07:36:39;3.00;1.00
15003;DHT22;7597;53.590;10.020;2022-11-27T07:39:05;3.10;1.00
15003;DHT22;7597;53.590;10.020;2022-11-27T07:41:32;3.10;1.00
15003;DHT22;7597;53.590;10.020;2022-11-27T07:43:59;3.20;1.00
15003;DHT22;7597;53.590;10.020;2022-11-27T07:46:25;3.20;1.00
15003;DHT22;7597;53.590;10.020;2022-11-27T07:48:52;3.30;1.00
15003;DHT22;7597;53.590;10.020;2022-11-27T07:51:19;3.30;1.00
15003;DHT22;7597;53.590;10.020;2022-11-27T07:53:45;3.40;1.00
15003;DHT22;7597;53.590;10.020;2022-11-27T07:56:13;3.30;1.00
15003;DHT22;7597;53.590;10.020;2022-11-27T07:58:39;3.30;1.00
15003;DHT22;7597;53.590;10.020;2022-11-27T08:01:06;3.50;1.00
15003;DHT22;7597;53.590;10.020;2022-11-27T08:03:32;3.50;1.00
15003;DHT22;7597;53.590;10.020;2022-11-27T08:05:59;3.50;1.00
15003;DHT22;7597;53.590;10.020;2022-11-27T08:08:25;3.60;1.00
15003;DHT22;7597;53.590;10.020;2022-11-27T08:10:52;3.70;1.00
15003;DHT22;7597;53.590;10.020;2022-11-27T08:13:19;3.60;1.00
15003;DHT22;7597;53.590;10.020;2022-11-27T08:15:45;4.20;1.00
15003;DHT22;7597;53.590;10.020;2022-11-27T08:18:13;3.80;1.00
15003;DHT22;7597;53.590;10.020;2022-11-27T08:20:39;4.30;1.00
15003;DHT22;7597;53.590;10.020;2022-11-27T08:23:06;3.90;1.00
15003;DHT22;7597;53.590;10.020;2022-11-27T08:25:32;4.00;1.00
15003;DHT22;7597;53.590;10.020;2022-11-27T08:28:00;4.70;1.00
15003;DHT22;7597;53.590;10.020;2022-11-27T08:30:27;4.60;1.00
15003;DHT22;7597;53.590;10.020;2022-11-27T08:32:53;5.10;1.00
15003;DHT22;7597;53.590;10.020;2022-11-27T08:35:20;5.40;1.00
15003;DHT22;7597;53.590;10.020;2022-11-27T08:37:47;5.50;1.00
15003;DHT22;7597;53.590;10.020;2022-11-27T08:40:14;6.00;99.90
15003;DHT22;7597;53.590;10.020;2022-11-27T08:42:40;6.30;99.90
15003;DHT22;7597;53.590;10.020;2022-11-27T08:45:07;6.20;99.90
15003;DHT22;7597;53.590;10.020;2022-11-27T08:47:34;5.90;99.90
15003;DHT22;7597;53.590;10.020;2022-11-27T08:50:02;5.50;99.90
15003;DHT22;7597;53.590;10.020;2022-11-27T08:52:28;5.30;99.90
15003;DHT22;7597;53.590;10.020;2022-11-27T08:54:55;4.90;99.90
15003;DHT22;7597;53.590;10.020;2022-11-27T08:57:22;4.80;99.90
15003;DHT22;7597;53.590;10.020;2022-11-27T08:59:49;4.80;99.90
15003;DHT22;7597;53.590;10.020;2022-11-27T09:02:15;4.80;99.90
15003;DHT22;7597;53.590;10.020;2022-11-27T09:04:42;4.80;99.90
15003;DHT22;7597;53.590;10.020;2022-11-27T09:07:09;4.60;99.90
15003;DHT22;7597;53.590;10.020;2022-11-27T09:09:36;4.70;99.90
15003;DHT22;7597;53.590;10.020;2022-11-27T09:12:05;4.70;99.90
15003;DHT22;7597;53.590;10.020;2022-11-27T09:14:31;4.60;99.90
15003;DHT22;7597;53.590;10.020;2022-11-27T09:16:58;4.60;99.90
15003;DHT22;7597;53.590;10.020;2022-11-27T09:19:25;4.80;99.90
15003;DHT22;7597;53.590;10.020;2022-11-27T09:21:51;5.30;99.90
15003;DHT22;7597;53.590;10.020;2022-11-27T09:24:19;5.20;99.90
15003;DHT22;7597;53.590;10.020;2022-11-27T09:26:53;5.80;99.90
15003;DHT22;7597;53.590;10.020;2022-11-27T09:29:20;6.20;99.90
15003;DHT22;7597;53.590;10.020;2022-11-27T09:31:46;6.40;99.90
15003;DHT22;7597;53.590;10.020;2022-11-27T09:34:13;6.00;99.90
15003;DHT22;7597;53.590;10.020;2022-11-27T09:36:40;5.70;99.90
15003;DHT22;7597;53.590;10.020;2022-11-27T09:39:06;5.30;99.90
15003;DHT22;7597;53.590;10.020;2022-11-27T09:41:40;5.30;99.90
15003;DHT22;7597;53.590;10.020;2022-11-27T09:44:45;5.30;99.90
15003;DHT22;7597;53.590;10.020;2022-11-27T09:47:13;5.40;99.90
15003;DHT22;7597;53.590;10.020;2022-11-27T09:49:42;5.60;99.90
15003;DHT22;7597;53.590;10.020;2022-11-27T09:52:14;5.90;99.90
15003;DHT22;7597;53.590;10.020;2022-11-27T09:54:42;6.20;99.90
15003;DHT22;7597;53.590;10.020;2022-11-27T09:57:09;6.90;99.90
15003;DHT22;7597;53.590;10.020;2022-11-27T09:59:38;7.30;99.90
15003;DHT22;7597;53.590;10.020;2022-11-27T10:02:01;7.80;92.60
15003;DHT22;7597;53.590;10.020;2022-11-27T10:04:29;6.90;72.00
15003;DHT22;7597;53.590;10.020;2022-11-27T10:07:06;6.70;72.60
15003;DHT22;7597;53.590;10.020;2022-11-27T10:09:35;6.10;99.90
15003;DHT22;7597;53.590;10.020;2022-11-27T10:12:10;6.00;99.90
15003;DHT22;7597;53.590;10.020;2022-11-27T10:15:06;5.90;99.90
15003;DHT22;7597;53.590;10.020;2022-11-27T10:17:35;5.40;99.90
15003;DHT22;7597;53.590;10.020;2022-11-27T10:20:18;5.50;99.90
15003;DHT22;7597;53.590;10.020;2022-11-27T10:22:49;5.30;99.90
15003;DHT22;7597;53.590;10.020;2022-11-27T10:25:16;5.20;99.90
15003;DHT22;7597;53.590;10.020;2022-11-27T10:27:52;5.20;99.90
15003;DHT22;7597;53.590;10.020;2022-11-27T10:30:16;5.20;99.90
15003;DHT22;7597;53.590;10.020;2022-11-27T10:32:43;5.20;99.90
15003;DHT22;7597;53.590;10.020;2022-11-27T10:35:12;5.20;99.90
15003;DHT22;7597;53.590;10.020;2022-11-27T10:37:40;5.30;99.90
15003;DHT22;7597;53.590;10.020;2022-11-27T10:40:24;5.40;99.90
15003;DHT22;7597;53.590;10.020;2022-11-27T10:45:44;5.80;99.90
15003;DHT22;7597;53.590;10.020;2022-11-27T10:48:10;6.00;99.90
15003;DHT22;7597;53.590;10.020;2022-11-27T10:50:36;6.00;99.90
15003;DHT22;7597;53.590;10.020;2022-11-27T10:53:05;6.20;99.90
15003;DHT22;7597;53.590;10.020;2022-11-27T10:55:36;6.50;99.90
15003;DHT22;7597;53.590;10.020;2022-11-27T10:58:12;6.40;99.90
15003;DHT22;7597;53.590;10.020;2022-11-27T11:00:38;6.60;99.90
15003;DHT22;7597;53.590;10.020;2022-11-27T11:03:05;6.70;99.90
15003;DHT22;7597;53.590;10.020;2022-11-27T11:05:32;6.60;99.90
15003;DHT22;7597;53.590;10.020;2022-11-27T11:08:03;6.60;99.90
15003;DHT22;7597;53.590;10.020;2022-11-27T11:10:34;6.50;99.90
15003;DHT22;7597;53.590;10.020;2022-11-27T11:13:05;6.40;99.90
15003;DHT22;7597;53.590;10.020;2022-11-27T11:15:31;6.10;99.90
15003;DHT22;7597;53.590;10.020;2022-11-27T11:17:57;6.10;99.90
15003;DHT22;7597;53.590;10.020;2022-11-27T11:20:24;6.10;99.90
15003;DHT22;7597;53.590;10.020;2022-11-27T11:22:51;6.00;99.90
15003;DHT22;7597;53.590;10.020;2022-11-27T11:25:18;6.00;99.90
15003;DHT22;7597;53.590;10.020;2022-11-27T11:27:45;5.90;99.90
15003;DHT22;7597;53.590;10.020;2022-11-27T11:30:27;6.00;99.90
15003;DHT22;7597;53.590;10.020;2022-11-27T11:32:58;6.00;99.90
15003;DHT22;7597;53.590;10.020;2022-11-27T11:35:26;5.90;99.90
15003;DHT22;7597;53.590;10.020;2022-11-27T11:37:51;5.90;99.90
15003;DHT22;7597;53.590;10.020;2022-11-27T11:40:21;6.00;99.90
15003;DHT22;7597;53.590;10.020;2022-11-27T11:42:51;6.00;99.90
15003;DHT22;7597;53.590;10.020;2022-11-27T11:45:17;5.90;99.90
15003;DHT22;7597;53.590;10.020;2022-11-27T11:47:48;6.40;99.90
15003;DHT22;7597;53.590;10.020;2022-11-27T11:50:36;6.00;99.90
15003;DHT22;7597;53.590;10.020;2022-11-27T11:55:54;5.90;99.90
15003;DHT22;7597;53.590;10.020;2022-11-27T12:01:27;5.90;99.90
15003;DHT22;7597;53.590;10.020;2022-11-27T12:03:59;5.90;99.90
15003;DHT22;7597;53.590;10.020;2022-11-27T12:06:31;5.90;99.90
15003;DHT22;7597;53.590;10.020;2022-11-27T12:09:22;5.90;99.90
15003;DHT22;7597;53.590;10.020;2022-11-27T12:14:40;6.10;99.90
15003;DHT22;7597;53.590;10.020;2022-11-27T12:18:17;6.10;99.90
15003;DHT22;7597;53.590;10.020;2022-11-27T12:20:01;6.10;99.90
15003;DHT22;7597;53.590;10.020;2022-11-27T12:23:37;6.10;99.90
15003;DHT22;7597;53.590;10.020;2022-11-27T12:25:26;6.20;99.90
15003;DHT22;7597;53.590;10.020;2022-11-27T12:28:07;6.60;99.90
15003;DHT22;7597;53.590;10.020;2022-11-27T12:33:34;6.20;99.90
15003;DHT22;7597;53.590;10.020;2022-11-27T12:36:21;6.20;99.90
15003;DHT22;7597;53.590;10.020;2022-11-27T12:38:50;6.20;99.90
15003;DHT22;7597;53.590;10.020;2022-11-27T12:43:50;6.80;99.90
15003;DHT22;7597;53.590;10.020;2022-11-27T12:46:47;6.30;99.90
15003;DHT22;7597;53.590;10.020;2022-11-27T12:49:19;6.30;99.90
15003;DHT22;7597;53.590;10.020;2022-11-27T12:52:05;6.30;99.90
15003;DHT22;7597;53.590;10.020;2022-11-27T12:54:31;6.30;99.90
15003;DHT22;7597;53.590;10.020;2022-11-27T12:56:57;6.30;99.90
15003;DHT22;7597;53.590;10.020;2022-11-27T12:59:26;6.20;99.90
15003;DHT22;7597;53.590;10.020;2022-11-27T13:01:58;6.30;99.90
15003;DHT22;7597;53.590;10.020;2022-11-27T13:04:26;6.20;99.90
15003;DHT22;7597;53.590;10.020;2022-11-27T13:09:35;6.20;99.90
15003;DHT22;7597;53.590;10.020;2022-11-27T13:11:57;5.80;99.90
15003;DHT22;7597;53.590;10.020;2022-11-27T13:14:24;6.20;99.90
15003;DHT22;7597;53.590;10.020;2022-11-27T13:16:51;6.20;99.90
15003;DHT22;7597;53.590;10.020;2022-11-27T13:19:22;6.20;99.90
15003;DHT22;7597;53.590;10.020;2022-11-27T13:21:45;6.30;99.90
15003;DHT22;7597;53.590;10.020;2022-11-27T13:24:12;6.20;99.90
15003;DHT22;7597;53.590;10.020;2022-11-27T13:29:26;6.30;99.90
15003;DHT22;7597;53.590;10.020;2022-11-27T13:31:52;6.20;99.90
15003;DHT22;7597;53.590;10.020;2022-11-27T13:34:19;6.20;99.90
15003;DHT22;7597;53.590;10.020;2022-11-27T13:36:45;6.20;99.90
15003;DHT22;7597;53.590;10.020;2022-11-27T13:39:22;6.20;99.90
15003;DHT22;7597;53.590;10.020;2022-11-27T13:41:47;6.20;99.90
15003;DHT22;7597;53.590;10.020;2022-11-27T13:44:22;6.20;99.90
15003;DHT22;7597;53.590;10.020;2022-11-27T13:46:48;6.10;99.90
15003;DHT22;7597;53.590;10.020;2022-11-27T13:51:42;6.10;99.90
15003;DHT22;7597;53.590;10.020;2022-11-27T13:54:10;6.10;99.90
15003;DHT22;7597;53.590;10.020;2022-11-27T13:56:36;6.10;99.90
15003;DHT22;7597;53.590;10.020;2022-11-27T13:59:13;6.10;99.90
15003;DHT22;7597;53.590;10.020;2022-11-27T14:01:39;6.10;99.90
15003;DHT22;7597;53.590;10.020;2022-11-27T14:04:07;6.10;99.90
15003;DHT22;7597;53.590;10.020;2022-11-27T14:06:35;6.10;99.90
15003;DHT22;7597;53.590;10.020;2022-11-27T14:09:03;6.10;99.90
15003;DHT22;7597;53.590;10.020;2022-11-27T14:11:39;6.10;99.90
15003;DHT22;7597;53.590;10.020;2022-11-27T14:14:20;6.10;99.90
15003;DHT22;7597;53.590;10.020;2022-11-27T14:16:57;6.10;99.90
15003;DHT22;7597;53.590;10.020;2022-11-27T14:19:27;6.10;99.90
15003;DHT22;7597;53.590;10.020;2022-11-27T14:21:53;6.10;99.90
15003;DHT22;7597;53.590;10.020;2022-11-27T14:24:36;6.10;99.90
15003;DHT22;7597;53.590;10.020;2022-11-27T14:27:13;6.10;99.90
15003;DHT22;7597;53.590;10.020;2022-11-27T14:29:33;6.10;99.90
15003;DHT22;7597;53.590;10.020;2022-11-27T14:32:00;6.10;99.90
15003;DHT22;7597;53.590;10.020;2022-11-27T14:34:27;6.10;99.90
15003;DHT22;7597;53.590;10.020;2022-11-27T14:36:53;6.10;99.90
15003;DHT22;7597;53.590;10.020;2022-11-27T14:39:36;6.10;99.90
15003;DHT22;7597;53.590;10.020;2022-11-27T14:42:04;6.10;99.90
15003;DHT22;7597;53.590;10.020;2022-11-27T14:44:30;6.10;99.90
15003;DHT22;7597;53.590;10.020;2022-11-27T14:46:58;6.10;99.90
15003;DHT22;7597;53.590;10.020;2022-11-27T14:49:24;6.10;99.90
15003;DHT22;7597;53.590;10.020;2022-11-27T14:51:50;6.10;99.90
15003;DHT22;7597;53.590;10.020;2022-11-27T14:54:19;6.10;99.90
15003;DHT22;7597;53.590;10.020;2022-11-27T14:56:44;6.10;99.90
15003;DHT22;7597;53.590;10.020;2022-11-27T14:59:12;6.00;99.90
15003;DHT22;7597;53.590;10.020;2022-11-27T15:01:40;6.00;99.90
15003;DHT22;7597;53.590;10.020;2022-11-27T15:04:24;6.00;99.90
15003;DHT22;7597;53.590;10.020;2022-11-27T15:06:34;6.00;99.90
15003;DHT22;7597;53.590;10.020;2022-11-27T15:08:59;6.00;99.90
15003;DHT22;7597;53.590;10.020;2022-11-27T15:11:26;6.00;99.90
15003;DHT22;7597;53.590;10.020;2022-11-27T15:13:54;6.00;99.90
15003;DHT22;7597;53.590;10.020;2022-11-27T15:16:20;5.90;99.90
15003;DHT22;7597;53.590;10.020;2022-11-27T15:18:48;5.90;99.90
15003;DHT22;7597;53.590;10.020;2022-11-27T15:21:16;5.90;99.90
15003;DHT22;7597;53.590;10.020;2022-11-27T15:23:44;5.90;99.90
15003;DHT22;7597;53.590;10.020;2022-11-27T15:26:10;5.90;99.90
15003;DHT22;7597;53.590;10.020;2022-11-27T15:28:40;5.90;99.90
15003;DHT22;7597;53.590;10.020;2022-11-27T15:33:44;5.90;99.90
15003;DHT22;7597;53.590;10.020;2022-11-27T15:36:14;5.80;99.90
15003;DHT22;7597;53.590;10.020;2022-11-27T15:38:40;5.90;99.90
15003;DHT22;7597;53.590;10.020;2022-11-27T15:41:23;5.90;99.90
15003;DHT22;7597;53.590;10.020;2022-11-27T15:43:48;5.90;99.90
15003;DHT22;7597;53.590;10.020;2022-11-27T15:46:16;5.90;99.90
15003;DHT22;7597;53.590;10.020;2022-11-27T15:48:41;5.90;99.90
15003;DHT22;7597;53.590;10.020;2022-11-27T15:51:09;5.90;99.90
15003;DHT22;7597;53.590;10.020;2022-11-27T15:53:36;5.90;99.90
15003;DHT22;7597;53.590;10.020;2022-11-27T15:56:02;5.90;99.90
15003;DHT22;7597;53.590;10.020;2022-11-27T15:58:29;5.90;99.90
15003;DHT22;7597;53.590;10.020;2022-11-27T16:00:56;5.90;99.90
15003;DHT22;7597;53.590;10.020;2022-11-27T16:03:22;5.90;99.90
15003;DHT22;7597;53.590;10.020;2022-11-27T16:05:50;5.80;99.90
15003;DHT22;7597;53.590;10.020;2022-11-27T16:08:16;5.90;99.90
15003;DHT22;7597;53.590;10.020;2022-11-27T16:10:43;5.90;99.90
15003;DHT22;7597;53.590;10.020;2022-11-27T16:13:10;5.90;99.90
15003;DHT22;7597;53.590;10.020;2022-11-27T16:15:36;5.90;99.90
15003;DHT22;7597;53.590;10.020;2022-11-27T16:18:03;5.90;99.90
15003;DHT22;7597;53.590;10.020;2022-11-27T16:20:30;5.90;99.90
15003;DHT22;7597;53.590;10.020;2022-11-27T16:22:56;5.90;99.90
15003;DHT22;7597;53.590;10.020;2022-11-27T16:25:23;5.90;99.90
15003;DHT22;7597;53.590;10.020;2022-11-27T16:27:50;5.90;99.90
15003;DHT22;7597;53.590;10.020;2022-11-27T16:30:17;5.90;99.90